Campbell Foss — WDC7754 — position and weather

sailwx.info

Track history (hours):
 
Tides and Currents Weather Stations Pressure Air Temp Water Temp Dewpoint Dewpoint Depression Visibility Wind Speed Wind Dir Waves Ship Positions

Campbell Foss

Owner: Foss Maritime Co., Seattle, WA. More information available from US FCC via Universal Licensing System and Coast Guard Vessel Documentation Center.

Last reported at 2017-Dec-03 07:48 UTC. Time now 2017-Dec-13 19:01 UTC.
Position N 33°43' W 118°16'.
Warning: this ship's position is 10 days out of date.

Length 23 m; draft 16 m.

Type: Tug. MMSI: 367076360.

Date/timePositionNaut miles runAvg speedWind from/ knotsBaromVisibWave heightAir tempDewpointWater temp
2017-Dec-03 07:48N 33°43' W 118°16'2 5.6
2017-Dec-03 07:29N 33°45' W 118°17'1 1.7
2017-Dec-03 06:58N 33°46' W 118°16'2 4.1
2017-Dec-03 06:27N 33°46' W 118°14'1 0.6
2017-Dec-03 05:28N 33°46' W 118°13'0 0.1
2017-Dec-03 01:56N 33°45' W 118°13'3 0.3
2017-Dec-02 12:54N 33°43' W 118°16'1 2.6
2017-Dec-02 12:26N 33°44' W 118°17'1 1.8
2017-Dec-02 11:58N 33°45' W 118°16'1 0.2
2017-Dec-02 08:59N 33°46' W 118°16'3 5.0
2017-Dec-02 08:29N 33°43' W 118°16'3 5.9
2017-Dec-02 07:59N 33°44' W 118°13'2 1.1
2017-Dec-02 06:12N 33°46' W 118°13'1 3.1
2017-Dec-02 05:58N 33°46' W 118°13'0 0.0
2017-Dec-02 05:30N 33°46' W 118°13'0 0.0
2017-Dec-02 04:59N 33°46' W 118°13'0 0.0
2017-Dec-01 19:23N 33°46' W 118°13'2 0.3
2017-Dec-01 13:59N 33°44' W 118°13'3 1.2
2017-Dec-01 11:26N 33°45' W 118°17'1 0.1
2017-Dec-01 03:27N 33°44' W 118°16'0 0.7
2017-Dec-01 02:59N 33°44' W 118°15'1 1.2
2017-Dec-01 02:16N 33°44' W 118°16'1 3.5
2017-Dec-01 02:00N 33°45' W 118°16'1 1.2
2017-Dec-01 01:02N 33°44' W 118°16'0 3.6
2017-Dec-01 00:58N 33°44' W 118°15'1 1.2
2017-Dec-01 00:30N 33°44' W 118°15'2 0.9
2017-Nov-30 22:36N 33°45' W 118°16'0 0.0
2017-Nov-30 22:30N 33°45' W 118°16'3 0.1
2017-Nov-30 02:06N 33°45' W 118°13'0 0.0
2017-Nov-30 02:00N 33°45' W 118°13'0 0.1
2017-Nov-29 23:53N 33°45' W 118°13'2 5.2
2017-Nov-29 23:29N 33°46' W 118°16'1 1.2
2017-Nov-29 22:51N 33°45' W 118°16'1 2.0
2017-Nov-29 22:30N 33°44' W 118°17'3 5.6
2017-Nov-29 22:00N 33°44' W 118°13'1 0.9
2017-Nov-29 20:52N 33°45' W 118°13'0 0.0
2017-Nov-29 20:30N 33°45' W 118°13'1 1.9
2017-Nov-29 19:45N 33°44' W 118°13'2 5.6
2017-Nov-29 19:21N 33°43' W 118°16'2 5.4
2017-Nov-29 19:00N 33°45' W 118°16'2 2.0
2017-Nov-29 18:13N 33°46' W 118°15'1 5.0
2017-Nov-29 18:00N 33°46' W 118°13'1 0.5
2017-Nov-29 16:40N 33°45' W 118°13'0 0.1
2017-Nov-29 16:10N 33°46' W 118°13'1 0.1
2017-Nov-29 03:29N 33°45' W 118°13'1 0.4
2017-Nov-29 00:48N 33°46' W 118°13'2 4.0
2017-Nov-29 00:16N 33°46' W 118°16'1 5.0
2017-Nov-29 00:00N 33°45' W 118°16'2 3.8
2017-Nov-28 23:29N 33°46' W 118°15'1 2.9
2017-Nov-28 23:00N 33°45' W 118°13'0 0.0
2017-Nov-28 22:30N 33°45' W 118°13'0 0.1
2017-Nov-28 19:20N 33°45' W 118°13'0 0.7
2017-Nov-28 18:56N 33°46' W 118°13'0 0.1
2017-Nov-28 18:30N 33°46' W 118°13'0 0.1
2017-Nov-28 17:56N 33°46' W 118°13'3 1.0
2017-Nov-28 14:59N 33°45' W 118°16'3 0.1
2017-Nov-27 04:43N 33°46' W 118°13'0 0.0
2017-Nov-27 04:31N 33°46' W 118°13'0 0.0
2017-Nov-26 15:56N 33°45' W 118°13'0 0.0
2017-Nov-26 04:58N 33°46' W 118°13'0 0.0
2017-Nov-26 04:30N 33°46' W 118°13'0 0.0
2017-Nov-26 03:57N 33°46' W 118°13'2 1.3
2017-Nov-26 02:18N 33°46' W 118°16'2 6.3
2017-Nov-26 01:56N 33°43' W 118°16'2 0.8
2017-Nov-25 23:46N 33°45' W 118°16'1 2.0
2017-Nov-25 23:30N 33°46' W 118°16'0 0.0
2017-Nov-25 22:17N 33°46' W 118°16'0 0.1
2017-Nov-25 21:21N 33°46' W 118°16'1 0.3
2017-Nov-25 19:07N 33°46' W 118°16'1 1.5
2017-Nov-25 18:47N 33°45' W 118°16'2 0.2
2017-Nov-25 05:56N 33°45' W 118°13'0 0.5
2017-Nov-25 05:28N 33°46' W 118°13'3 1.3
2017-Nov-25 03:04N 33°44' W 118°17'1 7.6
2017-Nov-25 03:00N 33°44' W 118°16'1 2.4
2017-Nov-25 02:30N 33°44' W 118°15'0 0.1
2017-Nov-25 01:59N 33°44' W 118°15'2 4.1
2017-Nov-25 01:29N 33°45' W 118°13'1 2.4
2017-Nov-25 00:58N 33°46' W 118°13'1 1.6
2017-Nov-25 00:29N 33°46' W 118°13'0 0.0
2017-Nov-25 00:00N 33°46' W 118°13'0 0.0
2017-Nov-24 23:03N 33°46' W 118°13'0 0.0
2017-Nov-24 23:00N 33°46' W 118°13'3 0.3
2017-Nov-24 14:04N 33°45' W 118°17'2 6.1
2017-Nov-24 13:49N 33°43' W 118°16'3 6.7
2017-Nov-24 13:25N 33°45' W 118°14'0 0.7
2017-Nov-24 12:53N 33°45' W 118°14'1 0.9
2017-Nov-24 11:39N 33°45' W 118°13'0 0.3
2017-Nov-24 10:40N 33°46' W 118°13'0 0.0
2017-Nov-24 10:29N 33°46' W 118°13'1 0.5
2017-Nov-24 08:53N 33°46' W 118°13'0 0.8
2017-Nov-24 08:27N 33°46' W 118°13'2 4.3
2017-Nov-24 07:55N 33°44' W 118°12'1 1.8
2017-Nov-24 07:05N 33°45' W 118°13'  
Track history (hours):
 
Tides and Currents Weather Stations Pressure Air Temp Water Temp Dewpoint Dewpoint Depression Visibility Wind Speed Wind Dir Waves Ship Positions

Campbell Foss

Owner: Foss Maritime Co., Seattle, WA. More information available from US FCC via Universal Licensing System and Coast Guard Vessel Documentation Center.

Last reported at 2017-Dec-03 07:48 UTC. Time now 2017-Dec-13 19:01 UTC.
Position N 33°43' W 118°16'.
Warning: this ship's position is 10 days out of date.

Length 23 m; draft 16 m.

Type: Tug. MMSI: 367076360.

Date/timePositionNaut miles runAvg speedWind from/ knotsBaromVisibWave heightAir tempDewpointWater temp
2017-Dec-03 07:48N 33°43' W 118°16'2 5.6
2017-Dec-03 07:29N 33°45' W 118°17'1 1.7
2017-Dec-03 06:58N 33°46' W 118°16'2 4.1
2017-Dec-03 06:27N 33°46' W 118°14'1 0.6
2017-Dec-03 05:28N 33°46' W 118°13'0 0.1
2017-Dec-03 01:56N 33°45' W 118°13'3 0.3
2017-Dec-02 12:54N 33°43' W 118°16'1 2.6
2017-Dec-02 12:26N 33°44' W 118°17'1 1.8
2017-Dec-02 11:58N 33°45' W 118°16'1 0.2
2017-Dec-02 08:59N 33°46' W 118°16'3 5.0
2017-Dec-02 08:29N 33°43' W 118°16'3 5.9
2017-Dec-02 07:59N 33°44' W 118°13'2 1.1
2017-Dec-02 06:12N 33°46' W 118°13'1 3.1
2017-Dec-02 05:58N 33°46' W 118°13'0 0.0
2017-Dec-02 05:30N 33°46' W 118°13'0 0.0
2017-Dec-02 04:59N 33°46' W 118°13'0 0.0
2017-Dec-01 19:23N 33°46' W 118°13'2 0.3
2017-Dec-01 13:59N 33°44' W 118°13'3 1.2
2017-Dec-01 11:26N 33°45' W 118°17'1 0.1
2017-Dec-01 03:27N 33°44' W 118°16'0 0.7
2017-Dec-01 02:59N 33°44' W 118°15'1 1.2
2017-Dec-01 02:16N 33°44' W 118°16'1 3.5
2017-Dec-01 02:00N 33°45' W 118°16'1 1.2
2017-Dec-01 01:02N 33°44' W 118°16'0 3.6
2017-Dec-01 00:58N 33°44' W 118°15'1 1.2
2017-Dec-01 00:30N 33°44' W 118°15'2 0.9
2017-Nov-30 22:36N 33°45' W 118°16'0 0.0
2017-Nov-30 22:30N 33°45' W 118°16'3 0.1
2017-Nov-30 02:06N 33°45' W 118°13'0 0.0
2017-Nov-30 02:00N 33°45' W 118°13'0 0.1
2017-Nov-29 23:53N 33°45' W 118°13'2 5.2
2017-Nov-29 23:29N 33°46' W 118°16'1 1.2
2017-Nov-29 22:51N 33°45' W 118°16'1 2.0
2017-Nov-29 22:30N 33°44' W 118°17'3 5.6
2017-Nov-29 22:00N 33°44' W 118°13'1 0.9
2017-Nov-29 20:52N 33°45' W 118°13'0 0.0
2017-Nov-29 20:30N 33°45' W 118°13'1 1.9
2017-Nov-29 19:45N 33°44' W 118°13'2 5.6
2017-Nov-29 19:21N 33°43' W 118°16'2 5.4
2017-Nov-29 19:00N 33°45' W 118°16'2 2.0
2017-Nov-29 18:13N 33°46' W 118°15'1 5.0
2017-Nov-29 18:00N 33°46' W 118°13'1 0.5
2017-Nov-29 16:40N 33°45' W 118°13'0 0.1
2017-Nov-29 16:10N 33°46' W 118°13'1 0.1
2017-Nov-29 03:29N 33°45' W 118°13'1 0.4
2017-Nov-29 00:48N 33°46' W 118°13'2 4.0
2017-Nov-29 00:16N 33°46' W 118°16'1 5.0
2017-Nov-29 00:00N 33°45' W 118°16'2 3.8
2017-Nov-28 23:29N 33°46' W 118°15'1 2.9
2017-Nov-28 23:00N 33°45' W 118°13'0 0.0
2017-Nov-28 22:30N 33°45' W 118°13'0 0.1
2017-Nov-28 19:20N 33°45' W 118°13'0 0.7
2017-Nov-28 18:56N 33°46' W 118°13'0 0.1
2017-Nov-28 18:30N 33°46' W 118°13'0 0.1
2017-Nov-28 17:56N 33°46' W 118°13'3 1.0
2017-Nov-28 14:59N 33°45' W 118°16'3 0.1
2017-Nov-27 04:43N 33°46' W 118°13'0 0.0
2017-Nov-27 04:31N 33°46' W 118°13'0 0.0
2017-Nov-26 15:56N 33°45' W 118°13'0 0.0
2017-Nov-26 04:58N 33°46' W 118°13'0 0.0
2017-Nov-26 04:30N 33°46' W 118°13'0 0.0
2017-Nov-26 03:57N 33°46' W 118°13'2 1.3
2017-Nov-26 02:18N 33°46' W 118°16'2 6.3
2017-Nov-26 01:56N 33°43' W 118°16'2 0.8
2017-Nov-25 23:46N 33°45' W 118°16'1 2.0
2017-Nov-25 23:30N 33°46' W 118°16'0 0.0
2017-Nov-25 22:17N 33°46' W 118°16'0 0.1
2017-Nov-25 21:21N 33°46' W 118°16'1 0.3
2017-Nov-25 19:07N 33°46' W 118°16'1 1.5
2017-Nov-25 18:47N 33°45' W 118°16'2 0.2
2017-Nov-25 05:56N 33°45' W 118°13'0 0.5
2017-Nov-25 05:28N 33°46' W 118°13'3 1.3
2017-Nov-25 03:04N 33°44' W 118°17'1 7.6
2017-Nov-25 03:00N 33°44' W 118°16'1 2.4
2017-Nov-25 02:30N 33°44' W 118°15'0 0.1
2017-Nov-25 01:59N 33°44' W 118°15'2 4.1
2017-Nov-25 01:29N 33°45' W 118°13'1 2.4
2017-Nov-25 00:58N 33°46' W 118°13'1 1.6
2017-Nov-25 00:29N 33°46' W 118°13'0 0.0
2017-Nov-25 00:00N 33°46' W 118°13'0 0.0
2017-Nov-24 23:03N 33°46' W 118°13'0 0.0
2017-Nov-24 23:00N 33°46' W 118°13'3 0.3
2017-Nov-24 14:04N 33°45' W 118°17'2 6.1
2017-Nov-24 13:49N 33°43' W 118°16'3 6.7
2017-Nov-24 13:25N 33°45' W 118°14'0 0.7
2017-Nov-24 12:53N 33°45' W 118°14'1 0.9
2017-Nov-24 11:39N 33°45' W 118°13'0 0.3
2017-Nov-24 10:40N 33°46' W 118°13'0 0.0
2017-Nov-24 10:29N 33°46' W 118°13'1 0.5
2017-Nov-24 08:53N 33°46' W 118°13'0 0.8
2017-Nov-24 08:27N 33°46' W 118°13'2 4.3
2017-Nov-24 07:55N 33°44' W 118°12'1 1.8
2017-Nov-24 07:05N 33°45' W 118°13'  

Dump ship's entire track history